Time;durP1;ratioP1;P1;durP2;ratioP2;P2;SDS_P1;SDS_P2;PMS_P1;PMS_P2;Temp;Humidity;BMP_temperature;BMP_pressure;BME280_temperature;BME280_humidity;BME280_pressure;Samples;Min_cycle;Max_cycle;Signal;HPM_P1;HPM_P2
2023/04/22 00:00:13;;;;;;;4.47;2.10;;;19.80;59.10;;;;;;5010239;28;20037;-52
2023/04/22 00:02:39;;;;;;;3.03;2.50;;;19.80;59.10;;;;;;5013143;28;20402;-56
2023/04/22 00:05:06;;;;;;;5.32;2.83;;;19.80;59.10;;;;;;5014041;28;20513;-58
2023/04/22 00:07:32;;;;;;;4.03;2.40;;;19.80;59.00;;;;;;5013263;28;20033;-49
2023/04/22 00:09:57;;;;;;;5.13;2.30;;;19.80;59.10;;;;;;5014407;28;20037;-52
2023/04/22 00:12:23;;;;;;;2.92;2.58;;;19.80;59.10;;;;;;5012224;28;20022;-55
2023/04/22 00:14:49;;;;;;;3.60;2.47;;;19.80;59.00;;;;;;5012752;28;20048;-59
2023/04/22 00:17:14;;;;;;;2.72;2.45;;;19.80;59.00;;;;;;5013969;28;20047;-51
2023/04/22 00:19:40;;;;;;;3.38;2.20;;;19.80;59.10;;;;;;5015166;28;20021;-52
2023/04/22 00:22:06;;;;;;;3.95;3.00;;;19.80;59.10;;;;;;5015367;28;20026;-52
2023/04/22 00:24:31;;;;;;;4.18;2.53;;;19.80;59.10;;;;;;5016377;28;20026;-52
2023/04/22 00:26:57;;;;;;;2.75;2.45;;;19.80;59.10;;;;;;5014173;28;20454;-57
2023/04/22 00:29:24;;;;;;;2.88;2.25;;;19.80;59.10;;;;;;5010676;28;20410;-59
2023/04/22 00:31:50;;;;;;;3.78;2.72;;;19.80;59.10;;;;;;5013477;28;20418;-56
2023/04/22 00:34:16;;;;;;;5.00;3.05;;;19.80;59.10;;;;;;5009908;28;20049;-59
2023/04/22 00:36:42;;;;;;;4.32;2.72;;;19.80;59.10;;;;;;5011334;28;20029;-53
2023/04/22 00:39:08;;;;;;;3.75;2.72;;;19.80;59.40;;;;;;5011855;28;20060;-58
2023/04/22 00:41:34;;;;;;;3.80;2.53;;;19.80;59.10;;;;;;5013315;28;20025;-52
2023/04/22 00:43:59;;;;;;;3.83;2.28;;;19.80;59.10;;;;;;5009824;28;20391;-53
2023/04/22 00:46:25;;;;;;;2.78;2.00;;;19.80;59.10;;;;;;5010907;28;20037;-55
2023/04/22 00:48:52;;;;;;;4.25;2.45;;;19.80;59.10;;;;;;5015340;28;20025;-52
2023/04/22 00:51:17;;;;;;;3.20;2.30;;;19.70;59.00;;;;;;5013897;28;20111;-50
2023/04/22 00:53:43;;;;;;;3.00;2.30;;;19.80;59.10;;;;;;5014268;28;20041;-52
2023/04/22 00:56:09;;;;;;;3.25;2.95;;;19.70;59.10;;;;;;5012968;28;20046;-56
2023/04/22 00:58:35;;;;;;;2.97;2.45;;;19.70;59.10;;;;;;5009501;28;20034;-50
2023/04/22 01:01:01;;;;;;;8.52;2.67;;;19.80;59.10;;;;;;5014563;28;20623;-55
2023/04/22 01:03:29;;;;;;;3.75;2.28;;;19.80;59.10;;;;;;5011860;28;20111;-54
2023/04/22 01:05:56;;;;;;;2.65;2.33;;;19.70;59.10;;;;;;5009393;28;20038;-58
2023/04/22 01:08:26;;;;;;;4.22;2.47;;;19.80;59.20;;;;;;5011184;28;20038;-50
2023/04/22 01:10:52;;;;;;;3.38;2.55;;;19.70;59.10;;;;;;5012537;28;20188;-54
2023/04/22 01:13:18;;;;;;;2.83;2.50;;;19.80;59.80;;;;;;5014005;28;20038;-51
2023/04/22 01:15:43;;;;;;;3.92;2.40;;;19.80;59.20;;;;;;5011563;28;20491;-55
2023/04/22 01:18:09;;;;;;;2.60;2.13;;;19.70;59.10;;;;;;5015130;28;20071;-57
2023/04/22 01:20:34;;;;;;;2.90;2.60;;;19.70;59.10;;;;;;5015046;28;20029;-50
2023/04/22 01:23:03;;;;;;;2.80;2.50;;;19.70;59.10;;;;;;5015502;28;20457;-54
2023/04/22 01:25:28;;;;;;;3.53;2.50;;;19.70;59.10;;;;;;5011888;28;20059;-52
2023/04/22 01:27:55;;;;;;;3.80;2.80;;;19.70;59.10;;;;;;5008961;28;20703;-52
2023/04/22 01:30:20;;;;;;;2.30;2.10;;;19.70;59.10;;;;;;5013018;28;20552;-50
2023/04/22 01:32:46;;;;;;;3.35;2.72;;;19.70;59.20;;;;;;5013819;28;20125;-50
2023/04/22 01:35:12;;;;;;;2.92;2.65;;;19.70;59.20;;;;;;5012254;28;20159;-55
2023/04/22 01:37:38;;;;;;;3.78;2.63;;;19.80;59.20;;;;;;5010289;28;20037;-53
2023/04/22 01:40:04;;;;;;;2.55;2.35;;;19.70;59.10;;;;;;5013326;28;20449;-56
2023/04/22 01:42:30;;;;;;;3.20;2.50;;;19.70;59.10;;;;;;5011423;28;20037;-51
2023/04/22 01:44:56;;;;;;;4.68;2.67;;;19.80;59.20;;;;;;5011549;28;20100;-52
2023/04/22 01:47:22;;;;;;;3.38;2.40;;;19.80;59.10;;;;;;5015313;28;20033;-55
2023/04/22 01:49:47;;;;;;;6.88;2.40;;;19.70;59.10;;;;;;5013227;28;20033;-53
2023/04/22 01:52:13;;;;;;;3.33;2.47;;;19.70;59.10;;;;;;5015545;28;20153;-53
2023/04/22 01:54:39;;;;;;;3.05;2.70;;;19.70;59.10;;;;;;5009643;28;20045;-55
2023/04/22 01:57:10;;;;;;;3.83;2.55;;;19.70;59.10;;;;;;5013232;28;20033;-55
2023/04/22 01:59:36;;;;;;;2.72;2.17;;;19.70;59.10;;;;;;5010325;28;20045;-52
2023/04/22 02:02:01;;;;;;;2.47;2.28;;;19.70;59.00;;;;;;5008998;28;20033;-51
2023/04/22 02:04:27;;;;;;;3.17;2.35;;;19.70;59.00;;;;;;5012603;28;20018;-54
2023/04/22 02:06:52;;;;;;;2.78;2.10;;;19.70;59.10;;;;;;5012868;28;20033;-58
2023/04/22 02:09:17;;;;;;;2.58;2.38;;;19.70;59.00;;;;;;5010755;28;20479;-52
2023/04/22 02:11:43;;;;;;;4.03;2.85;;;19.70;59.10;;;;;;5013036;28;20029;-51
2023/04/22 02:14:09;;;;;;;3.90;2.75;;;19.70;59.10;;;;;;5011827;28;20080;-54
2023/04/22 02:16:34;;;;;;;4.95;2.90;;;19.70;59.10;;;;;;5016820;28;20505;-51
2023/04/22 02:19:00;;;;;;;2.92;2.22;;;19.70;59.10;;;;;;5013513;28;20521;-57
2023/04/22 02:21:28;;;;;;;3.83;2.65;;;19.70;59.10;;;;;;5010943;28;20034;-55
2023/04/22 02:23:54;;;;;;;3.20;2.45;;;19.70;59.10;;;;;;5010320;28;20120;-55
2023/04/22 02:26:19;;;;;;;3.30;2.28;;;19.70;59.10;;;;;;5009813;28;20101;-51
2023/04/22 02:28:45;;;;;;;2.83;2.53;;;19.70;59.00;;;;;;5010750;28;20396;-57
2023/04/22 02:31:10;;;;;;;4.10;2.45;;;19.70;59.10;;;;;;5006580;28;20048;-54
2023/04/22 02:33:36;;;;;;;3.10;2.28;;;19.70;59.10;;;;;;5010095;28;20442;-56
2023/04/22 02:36:02;;;;;;;3.72;2.50;;;19.70;59.20;;;;;;5011353;28;20042;-59
2023/04/22 02:38:27;;;;;;;4.10;2.95;;;19.60;59.10;;;;;;5009895;28;20033;-57
2023/04/22 02:40:52;;;;;;;3.60;2.40;;;19.70;59.10;;;;;;5012673;28;20116;-55
2023/04/22 02:43:18;;;;;;;4.05;2.80;;;19.60;59.10;;;;;;5010995;28;20061;-54
2023/04/22 02:45:43;;;;;;;2.83;2.45;;;19.60;59.10;;;;;;5015405;28;20403;-57
2023/04/22 02:48:09;;;;;;;4.82;2.20;;;19.60;59.10;;;;;;5013253;28;20030;-54
2023/04/22 02:50:35;;;;;;;2.97;2.67;;;19.60;59.10;;;;;;5012657;28;20656;-52
2023/04/22 02:53:00;;;;;;;3.55;2.58;;;19.60;59.10;;;;;;5005112;28;20041;-58
2023/04/22 02:55:25;;;;;;;3.35;2.17;;;19.60;59.10;;;;;;5011103;28;20530;-55
2023/04/22 02:57:51;;;;;;;4.30;2.65;;;19.60;59.10;;;;;;5015057;28;20068;-56
2023/04/22 03:00:16;;;;;;;3.05;2.60;;;19.60;59.00;;;;;;5014610;28;20053;-50
2023/04/22 03:02:42;;;;;;;3.35;2.08;;;19.60;59.00;;;;;;5014506;28;20076;-58
2023/04/22 03:05:09;;;;;;;4.20;2.83;;;19.60;59.10;;;;;;5016944;28;20033;-57
2023/04/22 03:07:34;;;;;;;4.57;3.08;;;19.60;59.00;;;;;;5014352;28;20069;-59
2023/04/22 03:09:59;;;;;;;3.00;2.47;;;19.60;59.10;;;;;;5015289;28;20076;-52
2023/04/22 03:12:25;;;;;;;2.90;2.42;;;19.50;59.00;;;;;;5015612;28;20436;-50
2023/04/22 03:14:51;;;;;;;2.38;2.17;;;19.60;59.10;;;;;;5015646;28;20034;-53
2023/04/22 03:17:16;;;;;;;2.67;2.33;;;19.60;59.20;;;;;;5017928;28;20382;-54
2023/04/22 03:19:42;;;;;;;4.65;2.78;;;19.60;59.20;;;;;;5014402;28;20083;-53
2023/04/22 03:22:07;;;;;;;3.30;2.75;;;19.60;59.20;;;;;;5012510;28;20044;-54
2023/04/22 03:24:33;;;;;;;6.97;2.80;;;19.50;59.00;;;;;;5011785;28;20019;-56
2023/04/22 03:26:58;;;;;;;2.53;2.30;;;19.50;59.10;;;;;;5010937;28;20360;-52
2023/04/22 03:29:23;;;;;;;4.75;2.67;;;19.50;59.10;;;;;;5010248;28;20036;-53
2023/04/22 03:31:49;;;;;;;5.65;2.75;;;19.50;59.10;;;;;;5013047;28;20044;-59
2023/04/22 03:34:15;;;;;;;3.20;2.42;;;19.50;59.10;;;;;;5014179;28;20041;-50
2023/04/22 03:36:40;;;;;;;4.65;3.03;;;19.50;59.10;;;;;;5015906;28;20022;-50
2023/04/22 03:39:06;;;;;;;3.90;2.50;;;19.50;59.10;;;;;;5012847;28;20030;-59
2023/04/22 03:41:31;;;;;;;5.60;2.65;;;19.50;59.70;;;;;;5014990;28;20077;-58
2023/04/22 03:43:57;;;;;;;3.17;2.83;;;19.50;59.00;;;;;;5016996;28;20479;-57
2023/04/22 03:46:22;;;;;;;4.28;2.67;;;19.60;59.10;;;;;;5017282;28;20026;-54
2023/04/22 03:48:48;;;;;;;2.58;2.22;;;19.50;59.00;;;;;;5012441;28;20045;-56
2023/04/22 03:51:13;;;;;;;4.18;2.80;;;19.50;59.00;;;;;;5008452;28;20041;-54
2023/04/22 03:53:39;;;;;;;4.15;2.50;;;19.50;59.00;;;;;;5015078;28;20431;-50
2023/04/22 03:56:04;;;;;;;5.07;2.38;;;19.50;59.00;;;;;;5014013;28;20372;-54
2023/04/22 03:58:30;;;;;;;3.35;2.50;;;19.60;59.10;;;;;;5015310;28;20034;-58
2023/04/22 04:00:55;;;;;;;3.20;2.00;;;19.50;59.00;;;;;;5013269;28;20061;-55
2023/04/22 04:03:21;;;;;;;5.70;3.30;;;19.50;59.00;;;;;;5013286;28;20034;-54
2023/04/22 04:05:46;;;;;;;5.13;2.80;;;19.50;59.60;;;;;;5015161;28;20507;-55
2023/04/22 04:08:12;;;;;;;3.08;2.50;;;19.60;59.00;;;;;;5012234;28;20076;-56
2023/04/22 04:10:37;;;;;;;3.28;2.33;;;19.50;58.90;;;;;;5016127;28;20046;-56
2023/04/22 04:13:03;;;;;;;4.07;2.45;;;19.50;58.90;;;;;;5011797;28;20038;-52
2023/04/22 04:15:29;;;;;;;4.38;3.53;;;19.50;58.90;;;;;;5011510;28;20038;-54
2023/04/22 04:17:55;;;;;;;3.72;2.50;;;19.50;59.00;;;;;;5011898;28;20049;-56
2023/04/22 04:20:21;;;;;;;5.47;2.85;;;19.50;58.90;;;;;;5009844;28;20064;-57
2023/04/22 04:22:46;;;;;;;3.00;2.60;;;19.60;59.00;;;;;;5011248;28;20083;-56
2023/04/22 04:25:12;;;;;;;3.72;2.53;;;19.50;58.90;;;;;;5014123;28;20666;-56
2023/04/22 04:27:38;;;;;;;3.72;2.67;;;19.50;58.90;;;;;;5010483;28;20030;-53
2023/04/22 04:30:04;;;;;;;4.07;2.58;;;19.50;58.90;;;;;;5014815;28;20064;-50
2023/04/22 04:32:33;;;;;;;3.33;2.15;;;19.50;58.90;;;;;;5013964;28;20315;-51
2023/04/22 04:34:59;;;;;;;4.25;2.85;;;19.50;58.80;;;;;;5013089;28;20037;-53
2023/04/22 04:37:25;;;;;;;4.05;2.28;;;19.60;58.90;;;;;;5014279;28;20041;-50
2023/04/22 04:39:50;;;;;;;3.47;2.55;;;19.60;58.80;;;;;;5015610;28;20487;-51
2023/04/22 04:42:16;;;;;;;3.92;2.30;;;19.60;58.70;;;;;;5016703;28;20041;-53
2023/04/22 04:44:41;;;;;;;4.13;2.33;;;19.60;58.70;;;;;;5012737;28;20033;-55
2023/04/22 04:47:07;;;;;;;3.65;2.65;;;19.60;58.60;;;;;;5012235;28;20122;-51
2023/04/22 04:49:38;;;;;;;2.88;2.40;;;19.70;58.60;;;;;;5015252;28;20243;-53
2023/04/22 04:52:04;;;;;;;3.65;2.40;;;19.70;58.50;;;;;;5011375;28;20029;-56
2023/04/22 04:54:30;;;;;;;4.80;2.42;;;19.70;58.50;;;;;;5011598;28;20041;-55
2023/04/22 04:56:56;;;;;;;3.78;2.50;;;19.70;58.50;;;;;;5015994;28;20487;-52
2023/04/22 04:59:21;;;;;;;4.22;2.50;;;19.70;58.50;;;;;;5012055;28;20566;-56
2023/04/22 05:01:47;;;;;;;2.90;2.70;;;19.70;58.40;;;;;;5013538;28;20060;-55
2023/04/22 05:04:12;;;;;;;3.00;2.50;;;19.70;58.40;;;;;;5013912;28;20038;-57
2023/04/22 05:06:38;;;;;;;4.75;2.55;;;19.70;58.40;;;;;;5015820;28;20392;-57
2023/04/22 05:09:04;;;;;;;4.38;2.20;;;19.70;58.40;;;;;;5016596;28;20372;-55
2023/04/22 05:11:29;;;;;;;4.22;2.40;;;19.70;58.40;;;;;;5010686;28;20060;-55
2023/04/22 05:13:55;;;;;;;3.25;2.33;;;19.70;58.40;;;;;;5023463;28;20536;-51
2023/04/22 05:16:21;;;;;;;3.28;2.13;;;19.80;58.50;;;;;;5010669;28;20469;-57
2023/04/22 05:18:46;;;;;;;3.45;2.53;;;19.80;58.50;;;;;;5013312;28;20033;-59
2023/04/22 05:21:14;;;;;;;2.90;2.40;;;19.80;58.60;;;;;;5014050;28;20514;-53
2023/04/22 05:23:40;;;;;;;4.20;2.45;;;19.80;58.60;;;;;;5010567;28;20096;-54
2023/04/22 05:26:05;;;;;;;2.78;2.42;;;19.80;58.70;;;;;;5011783;28;20034;-50
2023/04/22 05:28:31;;;;;;;2.72;2.53;;;19.80;58.70;;;;;;5010517;28;20034;-52
2023/04/22 05:30:56;;;;;;;2.67;2.35;;;19.80;58.80;;;;;;5013184;28;20124;-58
2023/04/22 05:33:22;;;;;;;5.93;2.70;;;19.80;58.80;;;;;;5015576;28;20037;-53
2023/04/22 05:35:47;;;;;;;3.30;2.40;;;19.80;58.80;;;;;;5014762;28;20376;-54
2023/04/22 05:38:13;;;;;;;3.50;2.22;;;19.80;58.80;;;;;;5013143;28;20026;-59
2023/04/22 05:40:39;;;;;;;3.30;2.47;;;19.80;58.90;;;;;;5016122;28;20138;-55
2023/04/22 05:43:05;;;;;;;3.58;2.45;;;19.90;58.80;;;;;;5011488;28;20282;-55
2023/04/22 05:45:30;;;;;;;2.65;2.20;;;19.90;58.90;;;;;;5011870;28;20030;-55
2023/04/22 05:47:56;;;;;;;2.67;2.33;;;19.90;58.90;;;;;;5011479;28;20033;-59
2023/04/22 05:50:21;;;;;;;3.03;2.35;;;19.90;58.80;;;;;;5011660;28;20084;-59
2023/04/22 05:52:47;;;;;;;2.75;2.33;;;19.90;59.00;;;;;;5010348;28;20033;-51
2023/04/22 05:55:12;;;;;;;2.28;2.08;;;19.90;58.80;;;;;;5011397;28;20095;-51
2023/04/22 05:57:38;;;;;;;2.38;2.10;;;19.90;58.90;;;;;;5014863;28;20038;-56
2023/04/22 06:00:04;;;;;;;3.17;2.40;;;19.90;58.80;;;;;;5015219;28;20045;-59
2023/04/22 06:02:29;;;;;;;4.00;2.22;;;19.90;58.90;;;;;;5013839;28;20220;-57
2023/04/22 06:04:55;;;;;;;2.65;2.38;;;19.90;58.90;;;;;;5014180;28;20037;-53
2023/04/22 06:07:20;;;;;;;2.50;2.30;;;19.90;59.00;;;;;;5012901;28;20035;-55
2023/04/22 06:09:46;;;;;;;3.22;2.22;;;19.90;58.80;;;;;;5013940;28;20029;-55
2023/04/22 06:12:11;;;;;;;2.28;1.95;;;19.90;59.00;;;;;;5010823;28;20036;-60
2023/04/22 06:14:37;;;;;;;3.95;2.30;;;19.90;59.00;;;;;;5007442;28;20025;-53
2023/04/22 06:17:02;;;;;;;2.92;2.45;;;19.90;59.70;;;;;;5011928;28;20120;-57
2023/04/22 06:19:28;;;;;;;2.17;1.98;;;20.00;59.00;;;;;;5005378;28;20487;-57
2023/04/22 06:21:53;;;;;;;3.65;2.35;;;19.90;59.00;;;;;;5013454;28;20026;-55
2023/04/22 06:24:19;;;;;;;3.00;1.85;;;19.90;59.00;;;;;;5009855;28;20029;-53
2023/04/22 06:26:45;;;;;;;2.47;2.20;;;19.90;59.00;;;;;;5013241;28;20069;-51
2023/04/22 06:29:10;;;;;;;3.00;2.42;;;19.90;59.10;;;;;;5015498;28;20388;-56
2023/04/22 06:31:36;;;;;;;2.78;2.17;;;19.90;59.10;;;;;;5012312;28;20053;-52
2023/04/22 06:34:01;;;;;;;2.60;2.30;;;19.90;59.00;;;;;;5014072;28;20038;-51
2023/04/22 06:36:27;;;;;;;3.30;2.40;;;19.90;59.00;;;;;;5015094;28;20026;-56
2023/04/22 06:38:53;;;;;;;3.08;2.22;;;19.90;59.00;;;;;;5016903;28;20045;-54
2023/04/22 06:41:20;;;;;;;4.50;1.92;;;19.90;59.00;;;;;;5014570;28;20653;-57
2023/04/22 06:43:48;;;;;;;2.53;2.03;;;19.90;59.00;;;;;;5014492;28;20042;-54
2023/04/22 06:46:14;;;;;;;7.10;2.60;;;19.90;59.10;;;;;;5012648;28;20026;-51
2023/04/22 06:48:40;;;;;;;6.35;2.00;;;19.90;59.20;;;;;;5011012;28;20033;-58
2023/04/22 06:51:05;;;;;;;3.97;2.03;;;19.90;59.40;;;;;;5012878;28;20030;-53
2023/04/22 06:53:31;;;;;;;6.63;2.30;;;19.90;59.40;;;;;;5014377;28;20045;-57
2023/04/22 06:55:56;;;;;;;6.95;2.83;;;19.90;59.40;;;;;;5014996;28;20626;-56
2023/04/22 06:58:22;;;;;;;7.85;2.60;;;19.90;59.40;;;;;;5014575;28;20037;-55
2023/04/22 07:00:47;;;;;;;7.65;2.60;;;19.90;59.50;;;;;;5017651;28;20487;-57
2023/04/22 07:03:13;;;;;;;8.25;2.53;;;19.80;59.40;;;;;;5017910;28;20026;-49
2023/04/22 07:05:39;;;;;;;10.15;3.45;;;19.90;59.60;;;;;;5018058;28;20037;-53
2023/04/22 07:08:04;;;;;;;8.48;2.83;;;19.90;59.60;;;;;;5012849;28;20030;-53
2023/04/22 07:10:30;;;;;;;5.63;2.55;;;19.80;59.60;;;;;;5014432;28;20513;-59
2023/04/22 07:12:55;;;;;;;5.05;2.42;;;19.80;59.60;;;;;;5013261;28;20041;-48
2023/04/22 07:15:20;;;;;;;8.63;2.40;;;19.90;59.70;;;;;;5017307;28;20026;-53
2023/04/22 07:17:46;;;;;;;4.28;2.45;;;19.90;59.90;;;;;;5013970;28;20022;-56
2023/04/22 07:20:11;;;;;;;6.18;2.47;;;19.80;60.00;;;;;;5012138;28;20064;-54
2023/04/22 07:22:37;;;;;;;7.85;3.03;;;19.90;60.00;;;;;;5013390;28;20500;-54
2023/04/22 07:25:03;;;;;;;5.38;2.28;;;19.90;60.20;;;;;;5012927;28;20112;-55
2023/04/22 07:27:29;;;;;;;6.82;3.00;;;19.80;59.90;;;;;;5012983;28;20430;-56
2023/04/22 07:29:54;;;;;;;4.65;3.33;;;19.80;59.60;;;;;;5018421;28;20045;-56
2023/04/22 07:32:20;;;;;;;5.82;3.35;;;19.80;59.40;;;;;;5018300;28;20540;-52
2023/04/22 07:34:45;;;;;;;5.57;3.30;;;19.80;58.80;;;;;;5016964;28;20022;-57
2023/04/22 07:37:11;;;;;;;8.45;3.75;;;19.80;58.10;;;;;;5018101;28;20026;-53
2023/04/22 07:39:36;;;;;;;11.65;4.18;;;19.80;57.70;;;;;;5013215;28;20080;-50
2023/04/22 07:42:02;;;;;;;6.53;3.83;;;19.80;57.20;;;;;;5014275;28;20395;-54
2023/04/22 07:44:27;;;;;;;6.53;3.78;;;19.80;57.00;;;;;;5017463;28;20021;-54
2023/04/22 07:46:53;;;;;;;7.78;3.83;;;19.80;56.90;;;;;;5016822;28;20084;-56
2023/04/22 07:49:18;;;;;;;4.53;3.35;;;19.80;56.90;;;;;;5014418;28;20468;-57
2023/04/22 07:51:44;;;;;;;6.30;3.53;;;19.80;56.70;;;;;;5011656;28;20042;-56
2023/04/22 07:54:10;;;;;;;6.55;3.40;;;19.80;56.90;;;;;;5027661;23;20033;-64
2023/04/22 07:56:35;;;;;;;6.25;3.72;;;19.80;56.80;;;;;;5007341;28;20053;-65
2023/04/22 07:59:01;;;;;;;6.90;3.85;;;19.80;57.00;;;;;;5012422;28;20113;-64
2023/04/22 08:01:27;;;;;;;6.28;3.80;;;19.80;56.70;;;;;;5016148;28;20025;-64
2023/04/22 08:03:52;;;;;;;7.25;3.50;;;19.80;56.70;;;;;;5015779;28;20026;-64
2023/04/22 08:06:18;;;;;;;7.30;3.88;;;19.80;56.60;;;;;;5027593;28;20021;-64
2023/04/22 08:08:44;;;;;;;5.15;3.20;;;19.80;56.40;;;;;;5020785;28;20028;-64
2023/04/22 08:11:09;;;;;;;5.40;3.10;;;19.80;56.40;;;;;;5010343;28;20053;-64
2023/04/22 08:13:34;;;;;;;5.45;3.25;;;19.80;56.30;;;;;;5016345;28;20104;-64
2023/04/22 08:16:03;;;;;;;7.78;3.45;;;19.80;56.30;;;;;;5012728;28;20041;-64
2023/04/22 08:18:29;;;;;;;5.15;3.70;;;19.80;56.20;;;;;;5007443;28;20504;-64
2023/04/22 08:20:55;;;;;;;5.28;3.40;;;19.80;56.10;;;;;;5009238;28;20113;-64
2023/04/22 08:23:21;;;;;;;4.30;3.33;;;19.80;56.10;;;;;;5008274;28;20576;-64
2023/04/22 08:25:47;;;;;;;4.82;3.63;;;19.80;56.20;;;;;;5012455;28;20570;-64
2023/04/22 08:28:13;;;;;;;6.95;3.83;;;19.80;56.00;;;;;;5011148;28;20044;-64
2023/04/22 08:30:39;;;;;;;7.05;4.22;;;19.80;56.00;;;;;;5014949;28;20132;-64
2023/04/22 08:33:04;;;;;;;5.07;3.28;;;19.80;56.00;;;;;;5017781;28;20702;-64
2023/04/22 08:35:30;;;;;;;6.07;3.55;;;19.80;55.90;;;;;;5009148;28;20115;-64
2023/04/22 08:37:55;;;;;;;4.50;3.72;;;19.70;55.70;;;;;;5008834;28;20037;-64
2023/04/22 08:40:21;;;;;;;4.28;3.53;;;19.70;55.80;;;;;;5008448;28;20402;-64
2023/04/22 08:42:47;;;;;;;6.03;3.75;;;19.70;56.00;;;;;;5006077;28;20037;-64
2023/04/22 08:45:13;;;;;;;6.32;3.60;;;19.70;55.90;;;;;;5008076;28;20033;-62
2023/04/22 08:47:39;;;;;;;4.25;3.58;;;19.70;56.00;;;;;;5012443;28;20053;-64
2023/04/22 08:50:07;;;;;;;7.43;3.25;;;19.70;56.00;;;;;;5006535;28;20052;-64
2023/04/22 08:52:32;;;;;;;4.95;3.45;;;19.80;56.10;;;;;;5013173;28;20042;-65
2023/04/22 08:54:58;;;;;;;5.57;3.08;;;19.80;56.10;;;;;;5016282;28;20047;-64
2023/04/22 08:57:25;;;;;;;5.68;3.33;;;19.70;56.20;;;;;;5009516;28;20083;-64
2023/04/22 08:59:51;;;;;;;5.60;3.60;;;19.80;56.20;;;;;;5009627;28;20038;-64
2023/04/22 09:02:19;;;;;;;5.35;3.40;;;19.70;56.20;;;;;;5009353;28;20548;-64
2023/04/22 09:04:46;;;;;;;3.85;3.22;;;19.70;56.20;;;;;;5010883;28;20457;-63
2023/04/22 09:07:25;;;;;;;4.63;3.35;;;19.80;56.10;;;;;;5012001;28;20026;-65
2023/04/22 09:09:53;;;;;;;6.97;3.47;;;19.70;56.10;;;;;;5011813;28;20047;-64
2023/04/22 09:12:19;;;;;;;5.25;3.42;;;19.80;56.30;;;;;;5011800;28;20026;-64
2023/04/22 09:14:44;;;;;;;6.35;3.42;;;19.80;56.30;;;;;;5009070;28;20112;-64
2023/04/22 09:17:10;;;;;;;6.53;3.05;;;19.80;56.90;;;;;;5015063;28;20037;-64
2023/04/22 09:19:36;;;;;;;5.85;3.25;;;19.80;57.00;;;;;;5010542;28;20025;-64
2023/04/22 09:22:01;;;;;;;4.85;3.30;;;19.80;57.10;;;;;;5012000;28;20109;-64
2023/04/22 09:24:28;;;;;;;3.92;2.85;;;19.80;57.10;;;;;;5013675;28;20744;-63
2023/04/22 09:26:56;;;;;;;7.07;4.05;;;19.80;57.10;;;;;;5017701;28;20057;-64
2023/04/22 09:29:28;;;;;;;6.82;3.42;;;19.80;57.20;;;;;;5012825;28;20025;-64
2023/04/22 09:31:53;;;;;;;8.85;3.58;;;19.80;57.30;;;;;;5012326;28;20029;-64
2023/04/22 09:34:20;;;;;;;6.25;3.30;;;19.80;57.30;;;;;;5011444;28;20024;-64
2023/04/22 09:36:50;;;;;;;6.72;3.00;;;19.80;57.20;;;;;;5012297;28;20132;-64
2023/04/22 09:39:15;;;;;;;7.47;3.50;;;19.80;57.10;;;;;;5007913;28;20084;-64
2023/04/22 09:41:41;;;;;;;6.30;3.63;;;19.80;57.10;;;;;;5007544;28;20041;-63
2023/04/22 09:44:14;;;;;;;7.72;3.45;;;19.80;56.90;;;;;;5003237;28;20431;-64
2023/04/22 09:46:42;;;;;;;7.80;3.85;;;19.80;56.80;;;;;;5004667;28;20079;-64
2023/04/22 09:49:07;;;;;;;6.95;3.47;;;19.80;56.70;;;;;;5008786;28;20038;-64
2023/04/22 09:51:33;;;;;;;4.38;3.28;;;19.80;56.90;;;;;;5006178;28;20042;-64
2023/04/22 09:53:59;;;;;;;7.47;3.30;;;19.80;56.70;;;;;;5003795;28;20033;-63
2023/04/22 09:56:48;;;;;;;8.35;3.80;;;19.80;56.80;;;;;;5011584;28;20033;-64
2023/04/22 09:59:21;;;;;;;5.03;2.72;;;19.70;56.80;;;;;;5013893;28;20450;-63
2023/04/22 10:01:47;;;;;;;5.25;3.08;;;19.80;56.90;;;;;;5016115;28;20040;-64
2023/04/22 10:04:14;;;;;;;6.47;3.53;;;19.80;57.00;;;;;;5011411;28;20128;-64
2023/04/22 10:06:40;;;;;;;5.70;2.90;;;19.70;57.00;;;;;;5012595;28;20495;-65
2023/04/22 10:09:06;;;;;;;7.00;3.17;;;19.70;57.10;;;;;;5018271;28;20055;-64
2023/04/22 10:11:33;;;;;;;5.00;3.00;;;19.70;57.10;;;;;;5018945;28;20636;-64
2023/04/22 10:13:59;;;;;;;3.95;2.80;;;19.70;57.00;;;;;;5012347;28;20034;-63
2023/04/22 10:16:27;;;;;;;7.60;3.13;;;19.80;57.10;;;;;;5010118;28;20026;-64
2023/04/22 10:18:55;;;;;;;6.15;3.30;;;19.80;57.00;;;;;;5009531;28;20517;-63
2023/04/22 10:21:23;;;;;;;9.27;3.58;;;19.80;57.10;;;;;;5012641;28;20038;-64
2023/04/22 10:23:49;;;;;;;7.32;3.60;;;19.70;57.30;;;;;;5015595;28;20038;-64
2023/04/22 10:26:52;;;;;;;6.57;3.35;;;19.70;57.20;;;;;;5020874;28;20038;-64
2023/04/22 10:29:19;;;;;;;9.40;3.40;;;19.80;57.20;;;;;;5015072;28;20022;-63
2023/04/22 10:31:55;;;;;;;13.90;4.32;;;19.70;57.10;;;;;;5039912;22;20144;-51
2023/04/22 10:34:21;;;;;;;16.17;3.75;;;19.80;57.40;;;;;;5057779;28;20028;-52
2023/04/22 10:36:59;;;;;;;12.73;3.70;;;19.80;57.80;;;;;;5054513;28;20396;-51
2023/04/22 10:39:25;;;;;;;10.60;3.40;;;19.80;57.70;;;;;;5059967;28;20025;-57
2023/04/22 10:41:53;;;;;;;8.90;3.30;;;19.80;57.70;;;;;;5056941;28;20025;-52
2023/04/22 10:44:20;;;;;;;10.02;3.58;;;19.80;57.60;;;;;;5061291;28;20078;-58
2023/04/22 10:46:51;;;;;;;10.52;3.75;;;19.80;57.30;;;;;;5062347;28;20029;-52
2023/04/22 10:49:20;;;;;;;9.45;3.92;;;19.80;57.00;;;;;;5060109;28;20047;-56
2023/04/22 10:51:49;;;;;;;12.68;3.88;;;19.80;57.00;;;;;;5059706;28;20047;-49
2023/04/22 10:54:38;;;;;;;9.82;4.03;;;19.80;56.70;;;;;;5060489;28;20032;-54
2023/04/22 10:57:11;;;;;;;8.65;3.35;;;19.80;56.70;;;;;;5052988;28;20083;-51
2023/04/22 10:59:53;;;;;;;13.18;3.83;;;19.80;56.70;;;;;;5055389;28;20393;-54
2023/04/22 11:02:20;;;;;;;6.60;3.22;;;19.80;56.80;;;;;;5059106;28;20025;-56
2023/04/22 11:04:47;;;;;;;8.95;3.30;;;19.80;56.80;;;;;;5056666;28;20052;-52
2023/04/22 11:07:25;;;;;;;5.57;3.08;;;19.90;56.80;;;;;;5059640;28;20032;-49
2023/04/22 11:10:05;;;;;;;9.77;3.38;;;19.80;56.70;;;;;;5054675;28;20035;-52
2023/04/22 11:12:37;;;;;;;7.57;3.78;;;19.80;56.70;;;;;;5060065;28;20028;-49
2023/04/22 11:15:07;;;;;;;5.38;2.97;;;19.90;56.80;;;;;;5058175;28;20021;-53
2023/04/22 11:17:33;;;;;;;6.63;2.90;;;19.90;56.70;;;;;;5059676;28;20025;-50
2023/04/22 11:20:00;;;;;;;6.65;3.10;;;19.80;56.60;;;;;;5061222;28;20033;-49
2023/04/22 11:22:26;;;;;;;5.28;3.08;;;19.90;56.70;;;;;;5060882;28;20036;-57
2023/04/22 11:24:56;;;;;;;5.25;3.15;;;19.80;56.60;;;;;;5056199;28;20033;-53
2023/04/22 11:27:25;;;;;;;8.77;3.33;;;19.90;56.70;;;;;;5050379;28;20032;-54
2023/04/22 11:30:15;;;;;;;6.40;3.13;;;19.80;56.60;;;;;;5053793;28;20043;-49
2023/04/22 11:32:51;;;;;;;6.53;3.22;;;19.90;56.60;;;;;;5054612;28;20449;-54
2023/04/22 11:35:28;;;;;;;5.72;4.07;;;19.90;56.60;;;;;;5051301;28;20040;-49
2023/04/22 11:38:07;;;;;;;9.90;3.25;;;19.90;56.60;;;;;;5052018;28;20123;-52
2023/04/22 11:40:38;;;;;;;6.95;2.85;;;19.90;56.60;;;;;;5056307;28;20028;-53
2023/04/22 11:43:05;;;;;;;7.88;3.35;;;19.90;56.50;;;;;;5058223;28;20456;-52
2023/04/22 11:45:33;;;;;;;5.38;3.30;;;19.90;56.40;;;;;;5059027;28;20389;-53
2023/04/22 11:48:01;;;;;;;5.25;3.00;;;19.90;56.50;;;;;;5057967;28;20040;-59
2023/04/22 11:50:32;;;;;;;5.10;3.25;;;19.90;56.50;;;;;;5057022;28;20025;-51
2023/04/22 11:53:02;;;;;;;3.97;2.80;;;19.90;56.50;;;;;;5056896;28;20033;-52
2023/04/22 11:55:33;;;;;;;4.43;3.30;;;19.90;56.40;;;;;;5082777;28;20055;-52
2023/04/22 11:58:00;;;;;;;6.60;3.03;;;19.90;56.40;;;;;;5054428;28;20032;-60
2023/04/22 12:00:31;;;;;;;6.70;3.40;;;19.90;56.50;;;;;;5051092;28;20151;-55
2023/04/22 12:02:59;;;;;;;4.70;3.35;;;19.90;56.40;;;;;;5056833;28;20139;-59
2023/04/22 12:05:42;;;;;;;6.57;3.08;;;19.90;56.50;;;;;;5047154;28;20055;-52
2023/04/22 12:08:10;;;;;;;6.20;3.88;;;19.90;56.60;;;;;;5076170;28;20060;-54
2023/04/22 12:10:43;;;;;;;8.38;3.67;;;19.90;56.70;;;;;;5058488;28;20090;-51
2023/04/22 12:13:16;;;;;;;38.45;19.05;;;20.00;57.10;;;;;;5056460;28;20206;-49
2023/04/22 12:15:42;;;;;;;106.22;49.38;;;20.00;57.60;;;;;;5058094;28;20387;-52
2023/04/22 12:18:09;;;;;;;193.95;107.47;;;20.00;58.20;;;;;;5057505;28;20471;-54
2023/04/22 12:20:35;;;;;;;259.48;150.13;;;20.00;60.20;;;;;;5057153;28;20104;-54
2023/04/22 12:23:02;;;;;;;263.60;160.63;;;20.00;61.80;;;;;;5055252;28;20120;-49
2023/04/22 12:25:28;;;;;;;248.23;149.10;;;20.10;63.50;;;;;;5054563;28;20472;-57
2023/04/22 12:27:54;;;;;;;231.68;140.90;;;20.10;64.10;;;;;;5055293;28;20107;-56
2023/04/22 12:30:22;;;;;;;251.40;143.60;;;20.20;64.10;;;;;;5055855;28;20476;-56
2023/04/22 12:32:47;;;;;;;313.90;186.15;;;20.20;66.10;;;;;;5056642;28;20164;-56
2023/04/22 12:35:13;;;;;;;329.55;199.00;;;20.20;66.40;;;;;;5053297;28;21554;-49
2023/04/22 12:37:38;;;;;;;322.05;194.75;;;20.20;66.90;;;;;;5052510;28;20048;-54
2023/04/22 12:40:05;;;;;;;326.50;190.45;;;20.20;67.00;;;;;;5058380;28;20033;-57
2023/04/22 12:42:31;;;;;;;309.38;180.18;;;20.20;67.20;;;;;;5056337;28;20489;-50